sensor_id;sensor_type;location;lat;lon;timestamp;P1;durP1;ratioP1;P2;durP2;ratioP2
18322;SDS011;9287;49.456;11.064;2023-04-15T00:01:05;6.87;;;6.27;;
18322;SDS011;9287;49.456;11.064;2023-04-15T00:03:34;6.57;;;5.97;;
18322;SDS011;9287;49.456;11.064;2023-04-15T00:06:02;6.77;;;6.13;;
18322;SDS011;9287;49.456;11.064;2023-04-15T00:08:30;6.53;;;5.90;;
18322;SDS011;9287;49.456;11.064;2023-04-15T00:10:58;6.13;;;5.63;;
18322;SDS011;9287;49.456;11.064;2023-04-15T00:13:28;6.70;;;5.97;;
18322;SDS011;9287;49.456;11.064;2023-04-15T00:15:56;6.77;;;6.07;;
18322;SDS011;9287;49.456;11.064;2023-04-15T00:18:23;5.80;;;5.40;;
18322;SDS011;9287;49.456;11.064;2023-04-15T00:20:53;6.07;;;5.67;;
18322;SDS011;9287;49.456;11.064;2023-04-15T00:23:20;5.97;;;5.37;;
18322;SDS011;9287;49.456;11.064;2023-04-15T00:25:48;5.73;;;5.20;;
18322;SDS011;9287;49.456;11.064;2023-04-15T00:28:16;5.40;;;5.00;;
18322;SDS011;9287;49.456;11.064;2023-04-15T00:30:44;5.80;;;4.90;;
18322;SDS011;9287;49.456;11.064;2023-04-15T00:33:12;5.57;;;5.07;;
18322;SDS011;9287;49.456;11.064;2023-04-15T00:35:41;6.17;;;4.90;;
18322;SDS011;9287;49.456;11.064;2023-04-15T00:38:10;5.47;;;4.97;;
18322;SDS011;9287;49.456;11.064;2023-04-15T00:40:38;6.37;;;5.53;;
18322;SDS011;9287;49.456;11.064;2023-04-15T00:43:06;5.97;;;5.47;;
18322;SDS011;9287;49.456;11.064;2023-04-15T00:45:34;6.07;;;5.57;;
18322;SDS011;9287;49.456;11.064;2023-04-15T00:48:02;6.50;;;5.57;;
18322;SDS011;9287;49.456;11.064;2023-04-15T00:50:32;6.10;;;5.60;;
18322;SDS011;9287;49.456;11.064;2023-04-15T00:52:59;7.13;;;6.13;;
18322;SDS011;9287;49.456;11.064;2023-04-15T00:55:29;6.23;;;5.73;;
18322;SDS011;9287;49.456;11.064;2023-04-15T00:57:56;5.67;;;5.23;;
18322;SDS011;9287;49.456;11.064;2023-04-15T01:00:24;6.43;;;5.77;;
18322;SDS011;9287;49.456;11.064;2023-04-15T01:02:52;6.27;;;5.67;;
18322;SDS011;9287;49.456;11.064;2023-04-15T01:05:20;6.27;;;5.73;;
18322;SDS011;9287;49.456;11.064;2023-04-15T01:07:48;6.53;;;5.83;;
18322;SDS011;9287;49.456;11.064;2023-04-15T01:10:16;6.63;;;5.73;;
18322;SDS011;9287;49.456;11.064;2023-04-15T01:12:45;6.80;;;6.27;;
18322;SDS011;9287;49.456;11.064;2023-04-15T01:15:13;6.60;;;6.00;;
18322;SDS011;9287;49.456;11.064;2023-04-15T01:17:41;5.43;;;5.03;;
18322;SDS011;9287;49.456;11.064;2023-04-15T01:20:09;5.67;;;5.17;;
18322;SDS011;9287;49.456;11.064;2023-04-15T01:22:37;5.13;;;4.73;;
18322;SDS011;9287;49.456;11.064;2023-04-15T01:25:08;5.23;;;4.77;;
18322;SDS011;9287;49.456;11.064;2023-04-15T01:27:39;5.00;;;4.60;;
18322;SDS011;9287;49.456;11.064;2023-04-15T01:30:08;6.17;;;5.67;;
18322;SDS011;9287;49.456;11.064;2023-04-15T01:32:37;5.50;;;5.00;;
18322;SDS011;9287;49.456;11.064;2023-04-15T01:35:05;4.73;;;4.33;;
18322;SDS011;9287;49.456;11.064;2023-04-15T01:37:34;5.60;;;5.00;;
18322;SDS011;9287;49.456;11.064;2023-04-15T01:40:03;5.63;;;5.20;;
18322;SDS011;9287;49.456;11.064;2023-04-15T01:42:31;5.40;;;4.90;;
18322;SDS011;9287;49.456;11.064;2023-04-15T01:45:00;5.20;;;4.70;;
18322;SDS011;9287;49.456;11.064;2023-04-15T01:47:28;5.10;;;4.70;;
18322;SDS011;9287;49.456;11.064;2023-04-15T01:49:56;5.43;;;4.63;;
18322;SDS011;9287;49.456;11.064;2023-04-15T01:52:23;4.37;;;4.03;;
18322;SDS011;9287;49.456;11.064;2023-04-15T01:54:51;4.90;;;4.50;;
18322;SDS011;9287;49.456;11.064;2023-04-15T01:57:19;5.17;;;4.77;;
18322;SDS011;9287;49.456;11.064;2023-04-15T01:59:47;4.43;;;4.13;;
18322;SDS011;9287;49.456;11.064;2023-04-15T02:02:16;4.97;;;4.50;;
18322;SDS011;9287;49.456;11.064;2023-04-15T02:04:44;4.70;;;4.30;;
18322;SDS011;9287;49.456;11.064;2023-04-15T02:07:11;4.80;;;4.33;;
18322;SDS011;9287;49.456;11.064;2023-04-15T02:09:39;4.20;;;3.90;;
18322;SDS011;9287;49.456;11.064;2023-04-15T02:12:08;4.73;;;4.30;;
18322;SDS011;9287;49.456;11.064;2023-04-15T02:14:36;4.90;;;4.40;;
18322;SDS011;9287;49.456;11.064;2023-04-15T02:17:04;4.47;;;4.07;;
18322;SDS011;9287;49.456;11.064;2023-04-15T02:19:35;4.37;;;3.70;;
18322;SDS011;9287;49.456;11.064;2023-04-15T02:22:02;5.43;;;4.17;;
18322;SDS011;9287;49.456;11.064;2023-04-15T02:24:30;4.50;;;4.17;;
18322;SDS011;9287;49.456;11.064;2023-04-15T02:26:58;4.23;;;3.93;;
18322;SDS011;9287;49.456;11.064;2023-04-15T02:29:26;4.50;;;4.00;;
18322;SDS011;9287;49.456;11.064;2023-04-15T02:31:54;4.27;;;3.87;;
18322;SDS011;9287;49.456;11.064;2023-04-15T02:34:22;4.80;;;4.17;;
18322;SDS011;9287;49.456;11.064;2023-04-15T02:36:51;4.87;;;4.47;;
18322;SDS011;9287;49.456;11.064;2023-04-15T02:39:22;4.63;;;4.33;;
18322;SDS011;9287;49.456;11.064;2023-04-15T02:41:50;4.57;;;4.17;;
18322;SDS011;9287;49.456;11.064;2023-04-15T02:44:18;4.70;;;4.30;;
18322;SDS011;9287;49.456;11.064;2023-04-15T02:46:45;4.07;;;3.67;;
18322;SDS011;9287;49.456;11.064;2023-04-15T02:49:16;6.03;;;5.03;;
18322;SDS011;9287;49.456;11.064;2023-04-15T02:51:44;6.37;;;5.37;;
18322;SDS011;9287;49.456;11.064;2023-04-15T02:54:16;5.10;;;4.60;;
18322;SDS011;9287;49.456;11.064;2023-04-15T02:56:44;4.70;;;4.30;;
18322;SDS011;9287;49.456;11.064;2023-04-15T02:59:11;5.97;;;4.93;;
18322;SDS011;9287;49.456;11.064;2023-04-15T03:01:39;5.70;;;5.20;;
18322;SDS011;9287;49.456;11.064;2023-04-15T03:04:07;5.47;;;5.03;;
18322;SDS011;9287;49.456;11.064;2023-04-15T03:06:35;4.70;;;4.40;;
18322;SDS011;9287;49.456;11.064;2023-04-15T03:09:03;4.70;;;4.37;;
18322;SDS011;9287;49.456;11.064;2023-04-15T03:11:32;5.03;;;4.53;;
18322;SDS011;9287;49.456;11.064;2023-04-15T03:14:01;4.60;;;4.30;;
18322;SDS011;9287;49.456;11.064;2023-04-15T03:16:29;5.40;;;4.90;;
18322;SDS011;9287;49.456;11.064;2023-04-15T03:18:57;5.53;;;4.83;;
18322;SDS011;9287;49.456;11.064;2023-04-15T03:21:25;6.93;;;5.13;;
18322;SDS011;9287;49.456;11.064;2023-04-15T03:23:53;5.60;;;5.10;;
18322;SDS011;9287;49.456;11.064;2023-04-15T03:26:24;5.27;;;4.87;;
18322;SDS011;9287;49.456;11.064;2023-04-15T03:28:55;5.00;;;4.57;;
18322;SDS011;9287;49.456;11.064;2023-04-15T03:31:23;6.13;;;4.93;;
18322;SDS011;9287;49.456;11.064;2023-04-15T03:33:51;5.30;;;4.90;;
18322;SDS011;9287;49.456;11.064;2023-04-15T03:36:18;6.10;;;4.77;;
18322;SDS011;9287;49.456;11.064;2023-04-15T03:38:46;4.73;;;4.33;;
18322;SDS011;9287;49.456;11.064;2023-04-15T03:41:14;4.83;;;4.43;;
18322;SDS011;9287;49.456;11.064;2023-04-15T03:43:42;4.97;;;4.50;;
18322;SDS011;9287;49.456;11.064;2023-04-15T03:46:11;5.13;;;4.63;;
18322;SDS011;9287;49.456;11.064;2023-04-15T03:48:39;5.20;;;4.73;;
18322;SDS011;9287;49.456;11.064;2023-04-15T03:51:07;5.00;;;4.60;;
18322;SDS011;9287;49.456;11.064;2023-04-15T03:53:35;4.70;;;4.40;;
18322;SDS011;9287;49.456;11.064;2023-04-15T03:56:02;4.77;;;4.30;;
18322;SDS011;9287;49.456;11.064;2023-04-15T03:58:30;4.60;;;4.20;;
18322;SDS011;9287;49.456;11.064;2023-04-15T04:00:58;4.87;;;4.57;;
18322;SDS011;9287;49.456;11.064;2023-04-15T04:03:27;4.47;;;4.07;;
18322;SDS011;9287;49.456;11.064;2023-04-15T04:05:55;5.00;;;4.60;;
18322;SDS011;9287;49.456;11.064;2023-04-15T04:08:23;5.57;;;5.07;;
18322;SDS011;9287;49.456;11.064;2023-04-15T04:10:52;4.80;;;4.27;;
18322;SDS011;9287;49.456;11.064;2023-04-15T04:13:20;5.60;;;5.10;;
18322;SDS011;9287;49.456;11.064;2023-04-15T04:15:47;5.60;;;4.90;;
18322;SDS011;9287;49.456;11.064;2023-04-15T04:18:15;6.03;;;5.43;;
18322;SDS011;9287;49.456;11.064;2023-04-15T04:20:44;5.97;;;5.37;;
18322;SDS011;9287;49.456;11.064;2023-04-15T04:23:12;5.27;;;4.70;;
18322;SDS011;9287;49.456;11.064;2023-04-15T04:25:40;5.70;;;4.60;;
18322;SDS011;9287;49.456;11.064;2023-04-15T04:28:08;5.57;;;5.07;;
18322;SDS011;9287;49.456;11.064;2023-04-15T04:30:36;5.57;;;5.10;;
18322;SDS011;9287;49.456;11.064;2023-04-15T04:33:04;5.57;;;4.60;;
18322;SDS011;9287;49.456;11.064;2023-04-15T04:35:33;4.93;;;4.53;;
18322;SDS011;9287;49.456;11.064;2023-04-15T04:38:04;4.50;;;4.10;;
18322;SDS011;9287;49.456;11.064;2023-04-15T04:40:31;6.07;;;5.40;;
18322;SDS011;9287;49.456;11.064;2023-04-15T04:42:59;6.50;;;4.93;;
18322;SDS011;9287;49.456;11.064;2023-04-15T04:45:27;5.50;;;4.27;;
18322;SDS011;9287;49.456;11.064;2023-04-15T04:47:55;6.33;;;4.63;;
18322;SDS011;9287;49.456;11.064;2023-04-15T04:50:23;4.93;;;4.53;;
18322;SDS011;9287;49.456;11.064;2023-04-15T04:52:50;4.97;;;4.63;;
18322;SDS011;9287;49.456;11.064;2023-04-15T04:55:19;5.53;;;5.13;;
18322;SDS011;9287;49.456;11.064;2023-04-15T04:57:47;5.77;;;5.17;;
18322;SDS011;9287;49.456;11.064;2023-04-15T05:00:15;5.00;;;4.60;;
18322;SDS011;9287;49.456;11.064;2023-04-15T05:02:43;5.27;;;4.87;;
18322;SDS011;9287;49.456;11.064;2023-04-15T05:05:11;5.57;;;4.83;;
18322;SDS011;9287;49.456;11.064;2023-04-15T05:07:39;5.33;;;4.90;;
18322;SDS011;9287;49.456;11.064;2023-04-15T05:10:07;6.50;;;4.63;;
18322;SDS011;9287;49.456;11.064;2023-04-15T05:12:37;5.43;;;4.60;;
18322;SDS011;9287;49.456;11.064;2023-04-15T05:15:05;5.07;;;4.67;;
18322;SDS011;9287;49.456;11.064;2023-04-15T05:17:34;6.03;;;5.30;;
18322;SDS011;9287;49.456;11.064;2023-04-15T05:20:02;6.30;;;4.87;;
18322;SDS011;9287;49.456;11.064;2023-04-15T05:22:30;6.70;;;4.83;;
18322;SDS011;9287;49.456;11.064;2023-04-15T05:24:58;4.93;;;4.53;;
18322;SDS011;9287;49.456;11.064;2023-04-15T05:27:25;5.10;;;4.60;;
18322;SDS011;9287;49.456;11.064;2023-04-15T05:29:55;4.97;;;4.47;;
18322;SDS011;9287;49.456;11.064;2023-04-15T05:32:22;6.73;;;4.90;;
18322;SDS011;9287;49.456;11.064;2023-04-15T05:34:50;5.33;;;4.73;;
18322;SDS011;9287;49.456;11.064;2023-04-15T05:37:18;5.93;;;4.80;;
18322;SDS011;9287;49.456;11.064;2023-04-15T05:39:47;5.20;;;4.77;;
18322;SDS011;9287;49.456;11.064;2023-04-15T05:42:15;5.40;;;5.00;;
18322;SDS011;9287;49.456;11.064;2023-04-15T05:44:43;5.27;;;4.80;;
18322;SDS011;9287;49.456;11.064;2023-04-15T05:47:12;6.20;;;4.87;;
18322;SDS011;9287;49.456;11.064;2023-04-15T05:49:40;4.40;;;4.10;;
18322;SDS011;9287;49.456;11.064;2023-04-15T05:52:07;5.17;;;4.27;;
18322;SDS011;9287;49.456;11.064;2023-04-15T05:54:35;5.07;;;4.67;;
18322;SDS011;9287;49.456;11.064;2023-04-15T05:57:04;5.17;;;4.67;;
18322;SDS011;9287;49.456;11.064;2023-04-15T05:59:32;5.17;;;4.77;;
18322;SDS011;9287;49.456;11.064;2023-04-15T06:02:00;4.93;;;4.53;;
18322;SDS011;9287;49.456;11.064;2023-04-15T06:04:29;6.47;;;5.00;;
18322;SDS011;9287;49.456;11.064;2023-04-15T06:06:58;5.30;;;4.90;;
18322;SDS011;9287;49.456;11.064;2023-04-15T06:09:25;5.70;;;5.20;;
18322;SDS011;9287;49.456;11.064;2023-04-15T06:11:54;5.83;;;5.27;;
18322;SDS011;9287;49.456;11.064;2023-04-15T06:14:22;9.77;;;5.63;;
18322;SDS011;9287;49.456;11.064;2023-04-15T06:16:50;6.07;;;5.17;;
18322;SDS011;9287;49.456;11.064;2023-04-15T06:19:17;5.90;;;5.30;;
18322;SDS011;9287;49.456;11.064;2023-04-15T06:21:47;5.60;;;5.10;;
18322;SDS011;9287;49.456;11.064;2023-04-15T06:24:17;10.27;;;5.20;;
18322;SDS011;9287;49.456;11.064;2023-04-15T06:26:45;5.47;;;5.07;;
18322;SDS011;9287;49.456;11.064;2023-04-15T06:29:12;8.13;;;5.40;;
18322;SDS011;9287;49.456;11.064;2023-04-15T06:31:40;5.97;;;5.37;;
18322;SDS011;9287;49.456;11.064;2023-04-15T06:34:08;8.67;;;5.83;;
18322;SDS011;9287;49.456;11.064;2023-04-15T06:36:36;6.57;;;5.47;;
18322;SDS011;9287;49.456;11.064;2023-04-15T06:39:05;5.60;;;5.07;;
18322;SDS011;9287;49.456;11.064;2023-04-15T06:41:33;6.10;;;5.50;;
18322;SDS011;9287;49.456;11.064;2023-04-15T06:44:01;5.97;;;5.53;;
18322;SDS011;9287;49.456;11.064;2023-04-15T06:46:29;6.33;;;5.83;;
18322;SDS011;9287;49.456;11.064;2023-04-15T06:48:57;6.30;;;5.70;;
18322;SDS011;9287;49.456;11.064;2023-04-15T06:51:25;5.93;;;5.50;;
18322;SDS011;9287;49.456;11.064;2023-04-15T06:53:52;5.80;;;5.30;;
18322;SDS011;9287;49.456;11.064;2023-04-15T06:56:21;7.87;;;6.30;;
18322;SDS011;9287;49.456;11.064;2023-04-15T06:58:49;6.23;;;5.70;;
18322;SDS011;9287;49.456;11.064;2023-04-15T07:01:17;6.70;;;6.07;;
18322;SDS011;9287;49.456;11.064;2023-04-15T07:03:45;7.07;;;6.37;;
18322;SDS011;9287;49.456;11.064;2023-04-15T07:06:12;6.63;;;6.00;;
18322;SDS011;9287;49.456;11.064;2023-04-15T07:08:40;6.13;;;5.57;;
18322;SDS011;9287;49.456;11.064;2023-04-15T07:11:08;6.13;;;5.63;;
18322;SDS011;9287;49.456;11.064;2023-04-15T07:13:37;7.17;;;5.57;;
18322;SDS011;9287;49.456;11.064;2023-04-15T07:16:04;6.63;;;5.93;;
18322;SDS011;9287;49.456;11.064;2023-04-15T07:18:32;5.83;;;5.40;;
18322;SDS011;9287;49.456;11.064;2023-04-15T07:21:00;6.83;;;6.20;;
18322;SDS011;9287;49.456;11.064;2023-04-15T07:23:28;6.27;;;5.67;;
18322;SDS011;9287;49.456;11.064;2023-04-15T07:25:55;7.57;;;5.83;;
18322;SDS011;9287;49.456;11.064;2023-04-15T07:28:23;6.27;;;5.37;;
18322;SDS011;9287;49.456;11.064;2023-04-15T07:30:52;6.43;;;5.83;;
18322;SDS011;9287;49.456;11.064;2023-04-15T07:33:20;9.97;;;6.10;;
18322;SDS011;9287;49.456;11.064;2023-04-15T07:35:48;6.23;;;5.53;;
18322;SDS011;9287;49.456;11.064;2023-04-15T07:38:15;6.00;;;5.40;;
18322;SDS011;9287;49.456;11.064;2023-04-15T07:40:43;6.07;;;5.47;;
18322;SDS011;9287;49.456;11.064;2023-04-15T07:43:11;7.30;;;5.77;;
18322;SDS011;9287;49.456;11.064;2023-04-15T07:45:39;6.13;;;5.50;;
18322;SDS011;9287;49.456;11.064;2023-04-15T07:48:08;5.77;;;4.53;;
18322;SDS011;9287;49.456;11.064;2023-04-15T07:50:36;5.53;;;4.67;;
18322;SDS011;9287;49.456;11.064;2023-04-15T07:53:03;4.83;;;4.37;;
18322;SDS011;9287;49.456;11.064;2023-04-15T07:55:32;5.23;;;3.27;;
18322;SDS011;9287;49.456;11.064;2023-04-15T07:58:00;3.63;;;3.33;;
18322;SDS011;9287;49.456;11.064;2023-04-15T08:00:27;3.10;;;2.90;;
18322;SDS011;9287;49.456;11.064;2023-04-15T08:02:55;5.07;;;4.07;;
18322;SDS011;9287;49.456;11.064;2023-04-15T08:05:26;3.63;;;3.33;;
18322;SDS011;9287;49.456;11.064;2023-04-15T08:07:54;3.90;;;3.60;;
18322;SDS011;9287;49.456;11.064;2023-04-15T08:10:21;4.90;;;3.23;;
18322;SDS011;9287;49.456;11.064;2023-04-15T08:12:49;3.77;;;3.50;;
18322;SDS011;9287;49.456;11.064;2023-04-15T08:15:19;3.77;;;3.40;;
18322;SDS011;9287;49.456;11.064;2023-04-15T08:17:47;3.63;;;2.73;;
18322;SDS011;9287;49.456;11.064;2023-04-15T08:20:15;2.93;;;2.73;;
18322;SDS011;9287;49.456;11.064;2023-04-15T08:22:45;2.87;;;2.67;;
18322;SDS011;9287;49.456;11.064;2023-04-15T08:25:17;2.07;;;1.87;;
18322;SDS011;9287;49.456;11.064;2023-04-15T08:27:45;2.30;;;2.13;;
18322;SDS011;9287;49.456;11.064;2023-04-15T08:30:13;2.60;;;1.70;;
18322;SDS011;9287;49.456;11.064;2023-04-15T08:32:41;3.47;;;1.80;;
18322;SDS011;9287;49.456;11.064;2023-04-15T08:35:09;1.70;;;1.50;;
18322;SDS011;9287;49.456;11.064;2023-04-15T08:37:36;1.30;;;1.20;;
18322;SDS011;9287;49.456;11.064;2023-04-15T08:40:06;1.50;;;1.40;;
18322;SDS011;9287;49.456;11.064;2023-04-15T08:42:36;1.27;;;1.10;;
18322;SDS011;9287;49.456;11.064;2023-04-15T08:45:10;0.90;;;0.80;;
18322;SDS011;9287;49.456;11.064;2023-04-15T08:47:38;4.00;;;0.93;;
18322;SDS011;9287;49.456;11.064;2023-04-15T08:50:07;1.47;;;0.70;;
18322;SDS011;9287;49.456;11.064;2023-04-15T08:52:37;0.73;;;0.73;;
18322;SDS011;9287;49.456;11.064;2023-04-15T08:55:07;0.90;;;0.90;;
18322;SDS011;9287;49.456;11.064;2023-04-15T08:57:36;2.23;;;0.87;;
18322;SDS011;9287;49.456;11.064;2023-04-15T09:00:05;1.07;;;1.00;;
18322;SDS011;9287;49.456;11.064;2023-04-15T09:02:34;2.00;;;0.63;;
18322;SDS011;9287;49.456;11.064;2023-04-15T09:05:02;2.20;;;0.70;;
18322;SDS011;9287;49.456;11.064;2023-04-15T09:07:32;0.87;;;0.80;;
18322;SDS011;9287;49.456;11.064;2023-04-15T09:10:00;0.80;;;0.80;;
18322;SDS011;9287;49.456;11.064;2023-04-15T09:12:32;2.40;;;1.90;;
18322;SDS011;9287;49.456;11.064;2023-04-15T09:15:01;1.37;;;1.00;;
18322;SDS011;9287;49.456;11.064;2023-04-15T09:17:29;0.80;;;0.77;;
18322;SDS011;9287;49.456;11.064;2023-04-15T09:20:09;1.63;;;1.23;;
18322;SDS011;9287;49.456;11.064;2023-04-15T09:22:39;1.30;;;0.90;;
18322;SDS011;9287;49.456;11.064;2023-04-15T09:27:56;1.70;;;1.30;;
18322;SDS011;9287;49.456;11.064;2023-04-15T09:30:24;1.97;;;1.80;;
18322;SDS011;9287;49.456;11.064;2023-04-15T09:32:54;2.10;;;2.00;;
18322;SDS011;9287;49.456;11.064;2023-04-15T09:35:23;2.50;;;1.70;;
18322;SDS011;9287;49.456;11.064;2023-04-15T09:37:53;1.60;;;1.50;;
18322;SDS011;9287;49.456;11.064;2023-04-15T09:40:32;2.13;;;1.90;;
18322;SDS011;9287;49.456;11.064;2023-04-15T09:43:03;1.73;;;1.63;;
18322;SDS011;9287;49.456;11.064;2023-04-15T09:45:32;2.60;;;1.30;;
18322;SDS011;9287;49.456;11.064;2023-04-15T09:48:13;1.50;;;1.40;;
18322;SDS011;9287;49.456;11.064;2023-04-15T09:50:43;1.30;;;1.20;;
18322;SDS011;9287;49.456;11.064;2023-04-15T09:53:14;2.50;;;1.67;;
18322;SDS011;9287;49.456;11.064;2023-04-15T09:55:44;3.90;;;3.20;;
18322;SDS011;9287;49.456;11.064;2023-04-15T09:58:21;1.27;;;1.10;;
18322;SDS011;9287;49.456;11.064;2023-04-15T10:00:49;2.73;;;1.33;;
18322;SDS011;9287;49.456;11.064;2023-04-15T10:03:18;1.70;;;1.10;;
18322;SDS011;9287;49.456;11.064;2023-04-15T10:05:48;1.47;;;1.30;;
18322;SDS011;9287;49.456;11.064;2023-04-15T10:08:18;1.30;;;1.20;;
18322;SDS011;9287;49.456;11.064;2023-04-15T10:10:47;1.30;;;1.20;;
18322;SDS011;9287;49.456;11.064;2023-04-15T10:13:17;1.27;;;1.17;;
18322;SDS011;9287;49.456;11.064;2023-04-15T10:15:49;1.27;;;1.10;;
18322;SDS011;9287;49.456;11.064;2023-04-15T10:18:19;2.57;;;1.10;;
18322;SDS011;9287;49.456;11.064;2023-04-15T10:20:47;3.53;;;1.50;;
18322;SDS011;9287;49.456;11.064;2023-04-15T10:23:16;2.17;;;1.37;;
18322;SDS011;9287;49.456;11.064;2023-04-15T10:25:45;2.00;;;1.10;;
18322;SDS011;9287;49.456;11.064;2023-04-15T10:28:14;2.50;;;1.30;;
18322;SDS011;9287;49.456;11.064;2023-04-15T10:30:42;2.80;;;1.23;;
18322;SDS011;9287;49.456;11.064;2023-04-15T10:33:11;2.27;;;1.00;;
18322;SDS011;9287;49.456;11.064;2023-04-15T10:35:41;3.87;;;1.30;;
18322;SDS011;9287;49.456;11.064;2023-04-15T10:41:16;1.20;;;1.10;;
18322;SDS011;9287;49.456;11.064;2023-04-15T10:43:47;3.70;;;3.40;;
18322;SDS011;9287;49.456;11.064;2023-04-15T10:49:08;2.93;;;2.50;;
18322;SDS011;9287;49.456;11.064;2023-04-15T10:51:37;1.53;;;1.40;;
18322;SDS011;9287;49.456;11.064;2023-04-15T10:54:08;1.70;;;1.60;;
18322;SDS011;9287;49.456;11.064;2023-04-15T10:56:40;4.13;;;1.40;;
18322;SDS011;9287;49.456;11.064;2023-04-15T10:59:08;1.63;;;1.53;;
18322;SDS011;9287;49.456;11.064;2023-04-15T11:01:52;3.50;;;3.07;;
18322;SDS011;9287;49.456;11.064;2023-04-15T11:07:35;2.63;;;1.40;;
18322;SDS011;9287;49.456;11.064;2023-04-15T11:10:49;1.53;;;1.40;;
18322;SDS011;9287;49.456;11.064;2023-04-15T11:13:21;1.30;;;1.20;;
18322;SDS011;9287;49.456;11.064;2023-04-15T11:15:59;3.27;;;2.47;;
18322;SDS011;9287;49.456;11.064;2023-04-15T11:18:32;1.30;;;1.20;;
18322;SDS011;9287;49.456;11.064;2023-04-15T11:21:03;2.00;;;1.30;;
18322;SDS011;9287;49.456;11.064;2023-04-15T11:23:33;2.40;;;2.20;;
18322;SDS011;9287;49.456;11.064;2023-04-15T11:26:03;2.17;;;1.67;;
18322;SDS011;9287;49.456;11.064;2023-04-15T11:28:34;2.30;;;2.10;;
18322;SDS011;9287;49.456;11.064;2023-04-15T11:31:05;1.50;;;1.40;;
18322;SDS011;9287;49.456;11.064;2023-04-15T11:33:35;1.60;;;1.50;;
18322;SDS011;9287;49.456;11.064;2023-04-15T11:36:06;1.37;;;1.27;;
18322;SDS011;9287;49.456;11.064;2023-04-15T11:38:34;1.37;;;1.27;;
18322;SDS011;9287;49.456;11.064;2023-04-15T11:41:03;1.23;;;1.13;;
18322;SDS011;9287;49.456;11.064;2023-04-15T11:43:31;1.83;;;1.47;;
18322;SDS011;9287;49.456;11.064;2023-04-15T11:46:01;1.40;;;1.30;;
18322;SDS011;9287;49.456;11.064;2023-04-15T11:48:30;1.70;;;1.60;;
18322;SDS011;9287;49.456;11.064;2023-04-15T11:50:59;2.63;;;1.80;;
18322;SDS011;9287;49.456;11.064;2023-04-15T11:53:39;1.70;;;1.60;;
18322;SDS011;9287;49.456;11.064;2023-04-15T11:56:09;1.73;;;1.57;;
18322;SDS011;9287;49.456;11.064;2023-04-15T11:58:42;1.13;;;1.03;;
18322;SDS011;9287;49.456;11.064;2023-04-15T12:01:11;1.47;;;1.27;;
18322;SDS011;9287;49.456;11.064;2023-04-15T12:03:40;1.50;;;1.40;;
18322;SDS011;9287;49.456;11.064;2023-04-15T12:06:13;1.40;;;1.30;;
18322;SDS011;9287;49.456;11.064;2023-04-15T12:08:55;1.30;;;1.20;;
18322;SDS011;9287;49.456;11.064;2023-04-15T12:11:28;1.03;;;1.03;;
18322;SDS011;9287;49.456;11.064;2023-04-15T12:13:58;1.00;;;1.00;;
18322;SDS011;9287;49.456;11.064;2023-04-15T12:16:29;0.90;;;0.90;;
18322;SDS011;9287;49.456;11.064;2023-04-15T12:19:03;1.67;;;0.90;;
18322;SDS011;9287;49.456;11.064;2023-04-15T12:21:35;0.70;;;0.70;;
18322;SDS011;9287;49.456;11.064;2023-04-15T12:24:06;1.03;;;1.03;;
18322;SDS011;9287;49.456;11.064;2023-04-15T12:26:35;0.60;;;0.60;;
18322;SDS011;9287;49.456;11.064;2023-04-15T12:29:04;1.00;;;1.00;;
18322;SDS011;9287;49.456;11.064;2023-04-15T12:31:33;0.80;;;0.80;;
18322;SDS011;9287;49.456;11.064;2023-04-15T12:34:02;0.73;;;0.60;;
18322;SDS011;9287;49.456;11.064;2023-04-15T12:36:33;1.43;;;0.80;;
18322;SDS011;9287;49.456;11.064;2023-04-15T12:39:02;0.70;;;0.70;;
18322;SDS011;9287;49.456;11.064;2023-04-15T12:41:32;1.00;;;0.80;;
18322;SDS011;9287;49.456;11.064;2023-04-15T12:44:00;0.83;;;0.83;;
18322;SDS011;9287;49.456;11.064;2023-04-15T12:46:28;1.00;;;0.87;;
18322;SDS011;9287;49.456;11.064;2023-04-15T12:48:56;1.07;;;1.03;;
18322;SDS011;9287;49.456;11.064;2023-04-15T12:51:24;1.10;;;1.00;;
18322;SDS011;9287;49.456;11.064;2023-04-15T12:53:52;1.10;;;1.00;;
18322;SDS011;9287;49.456;11.064;2023-04-15T12:56:20;0.80;;;0.80;;
18322;SDS011;9287;49.456;11.064;2023-04-15T12:58:50;0.93;;;0.93;;
18322;SDS011;9287;49.456;11.064;2023-04-15T13:01:18;0.90;;;0.90;;
18322;SDS011;9287;49.456;11.064;2023-04-15T13:03:45;1.10;;;1.00;;
18322;SDS011;9287;49.456;11.064;2023-04-15T13:06:15;0.70;;;0.70;;
18322;SDS011;9287;49.456;11.064;2023-04-15T13:08:43;1.00;;;1.00;;
18322;SDS011;9287;49.456;11.064;2023-04-15T13:11:23;1.10;;;1.00;;
18322;SDS011;9287;49.456;11.064;2023-04-15T13:13:53;1.07;;;1.00;;
18322;SDS011;9287;49.456;11.064;2023-04-15T13:16:22;2.83;;;1.90;;
18322;SDS011;9287;49.456;11.064;2023-04-15T13:18:50;0.70;;;0.70;;
18322;SDS011;9287;49.456;11.064;2023-04-15T13:21:17;0.70;;;0.70;;
18322;SDS011;9287;49.456;11.064;2023-04-15T13:23:45;0.70;;;0.70;;
18322;SDS011;9287;49.456;11.064;2023-04-15T13:26:15;0.93;;;0.90;;
18322;SDS011;9287;49.456;11.064;2023-04-15T13:28:43;0.80;;;0.80;;
18322;SDS011;9287;49.456;11.064;2023-04-15T13:31:12;1.00;;;0.97;;
18322;SDS011;9287;49.456;11.064;2023-04-15T13:33:40;0.70;;;0.70;;
18322;SDS011;9287;49.456;11.064;2023-04-15T13:36:08;1.63;;;1.30;;
18322;SDS011;9287;49.456;11.064;2023-04-15T13:38:35;0.70;;;0.70;;
18322;SDS011;9287;49.456;11.064;2023-04-15T13:41:03;0.80;;;0.80;;
18322;SDS011;9287;49.456;11.064;2023-04-15T13:43:31;2.03;;;0.80;;
18322;SDS011;9287;49.456;11.064;2023-04-15T13:45:59;0.70;;;0.70;;
18322;SDS011;9287;49.456;11.064;2023-04-15T13:48:28;0.80;;;0.80;;
18322;SDS011;9287;49.456;11.064;2023-04-15T13:50:56;0.77;;;0.77;;
18322;SDS011;9287;49.456;11.064;2023-04-15T13:53:24;1.27;;;0.80;;
18322;SDS011;9287;49.456;11.064;2023-04-15T13:56:04;1.80;;;1.70;;
18322;SDS011;9287;49.456;11.064;2023-04-15T13:58:32;1.50;;;1.10;;
18322;SDS011;9287;49.456;11.064;2023-04-15T14:01:00;1.30;;;1.20;;
18322;SDS011;9287;49.456;11.064;2023-04-15T14:03:32;1.03;;;1.00;;
18322;SDS011;9287;49.456;11.064;2023-04-15T14:06:01;0.97;;;0.97;;
18322;SDS011;9287;49.456;11.064;2023-04-15T14:08:29;1.07;;;1.00;;
18322;SDS011;9287;49.456;11.064;2023-04-15T14:10:57;2.60;;;2.40;;
18322;SDS011;9287;49.456;11.064;2023-04-15T14:13:24;1.50;;;1.40;;
18322;SDS011;9287;49.456;11.064;2023-04-15T14:15:52;1.27;;;1.17;;
18322;SDS011;9287;49.456;11.064;2023-04-15T14:18:20;1.30;;;1.10;;
18322;SDS011;9287;49.456;11.064;2023-04-15T14:20:49;1.03;;;1.00;;
18322;SDS011;9287;49.456;11.064;2023-04-15T14:23:17;1.37;;;1.27;;
18322;SDS011;9287;49.456;11.064;2023-04-15T14:25:44;2.70;;;2.20;;
18322;SDS011;9287;49.456;11.064;2023-04-15T14:28:13;1.13;;;1.00;;
18322;SDS011;9287;49.456;11.064;2023-04-15T14:30:41;1.67;;;1.20;;
18322;SDS011;9287;49.456;11.064;2023-04-15T14:33:09;0.90;;;0.83;;
18322;SDS011;9287;49.456;11.064;2023-04-15T14:35:37;0.90;;;0.90;;
18322;SDS011;9287;49.456;11.064;2023-04-15T14:38:06;1.30;;;1.20;;
18322;SDS011;9287;49.456;11.064;2023-04-15T14:40:36;1.27;;;1.17;;
18322;SDS011;9287;49.456;11.064;2023-04-15T14:43:04;0.90;;;0.90;;
18322;SDS011;9287;49.456;11.064;2023-04-15T14:45:33;0.80;;;0.80;;
18322;SDS011;9287;49.456;11.064;2023-04-15T14:48:01;1.20;;;1.10;;
18322;SDS011;9287;49.456;11.064;2023-04-15T14:50:29;1.30;;;1.20;;
18322;SDS011;9287;49.456;11.064;2023-04-15T14:52:57;1.20;;;1.10;;
18322;SDS011;9287;49.456;11.064;2023-04-15T14:55:26;1.20;;;0.90;;
18322;SDS011;9287;49.456;11.064;2023-04-15T14:57:54;0.87;;;0.87;;
18322;SDS011;9287;49.456;11.064;2023-04-15T15:00:22;1.07;;;1.00;;
18322;SDS011;9287;49.456;11.064;2023-04-15T15:02:49;1.33;;;0.97;;
18322;SDS011;9287;49.456;11.064;2023-04-15T15:05:17;0.83;;;0.83;;
18322;SDS011;9287;49.456;11.064;2023-04-15T15:07:45;0.90;;;0.90;;
18322;SDS011;9287;49.456;11.064;2023-04-15T15:10:13;0.90;;;0.77;;